Latest Weather Observations for Lombadina

IDW60801

Issued at 5:53 pm WST Tuesday 23 October 2018 (issued every 10 minutes, with the page automatically refreshed every 10 minutes)

About weather observations | Map of weather stations | Latest weather observations for WA | Other Formats
Station Details ID: 503016 Name: LOMBADINA AIRSTRIP Lat: -16.52 Lon: 122.92 Height: 42.0 m
Data from the previous 72 hours. | See also: Recent months for locations in Western Australia
Date/Time
WST
Temp
°C
App
Temp
°C
Dew
Point
°C
Rel
Hum
%
Delta-T
°C
Wind Press
QNH
hPa
Press
MSL
hPa
Rain since
9am
mm
Dir  Spd
km/h
Gust
km/h
Spd
kts
Gust
kts
23/05:30pm 27.8 31.0 23.0 75 3.3 W 11 20 6 11 1007.9 1007.6 0.0
23/05:00pm 28.1 30.8 23.5 76 3.2 W 15 26 8 14 1007.6 1007.3 0.0
23/04:30pm 28.5 30.8 23.4 74 3.5 W 17 28 9 15 1007.5 1007.2 0.0
23/04:00pm 29.2 31.7 23.2 70 4.1 WNW 15 24 8 13 1007.5 1007.2 0.0
23/03:30pm 29.0 30.9 22.7 69 4.3 WNW 17 26 9 14 1007.6 1007.3 0.0
23/03:00pm 30.3 32.6 22.7 64 5.2 WNW 15 26 8 14 1007.7 1007.4 0.0
23/02:30pm 29.6 31.2 22.8 67 4.6 WNW 19 30 10 16 1007.8 1007.5 0.0
23/02:00pm 29.4 31.7 23.4 70 4.1 WNW 17 28 9 15 1008.2 1007.9 0.0
23/01:30pm 29.3 31.3 23.0 69 4.3 NW 17 26 9 14 1008.6 1008.3 0.0
23/01:00pm 30.5 33.0 24.4 70 4.3 NW 19 30 10 16 1008.9 1008.6 0.0
23/12:30pm 29.5 31.2 23.0 68 4.5 NW 19 26 10 14 1009.3 1009.0 0.0
23/12:00pm 29.9 32.4 23.8 70 4.2 NW 17 28 9 15 1009.6 1009.3 0.0
23/11:30am 29.8 32.5 23.5 69 4.3 NW 15 26 8 14 1009.9 1009.6 0.0
23/11:00am 29.6 32.1 23.1 68 4.5 WNW 15 22 8 12 1010.3 1010.0 0.0
23/10:30am 30.9 34.7 24.1 67 4.7 NW 11 19 6 10 1010.6 1010.3 0.0
23/10:00am 29.8 33.2 24.0 71 4.0 NW 13 20 7 11 1010.9 1010.6 0.0
23/09:30am 29.5 32.7 23.7 71 4.0 NW 13 20 7 11 1011.0 1010.7 0.0
23/09:00am 29.5 33.2 24.6 75 3.4 NW 13 20 7 11 1011.2 1010.9 0.0
23/08:30am 29.0 32.6 24.3 76 3.3 NW 13 19 7 10 1011.1 1010.8 0.0
23/08:00am 28.5 32.4 24.3 78 2.9 NW 11 17 6 9 1010.9 1010.6 0.0
23/07:36am 27.8 31.7 24.2 81 2.5 NNW 11 17 6 9 1010.9 1010.6 0.0
23/07:30am 28.0 31.9 24.8 83 2.2 NW 13 19 7 10 1010.8 1010.5 0.0
23/07:19am 28.1 32.0 24.9 83 2.2 NNW 13 19 7 10 1010.7 1010.4 0.0
23/07:00am 27.3 32.4 25.5 90 1.3 NNW 9 15 5 8 1010.6 1010.3 0.0
23/06:30am 26.1 31.5 25.1 94 0.7 NNW 6 9 3 5 1010.2 1009.9 0.0
23/06:00am 25.2 30.5 24.9 98 0.2 N 6 9 3 5 1009.9 1009.6 0.0
23/05:30am 24.8 29.9 24.6 99 0.1 N 6 9 3 5 1009.6 1009.3 0.0
23/05:00am 24.4 29.6 24.2 99 0.1 N 4 7 2 4 1009.5 1009.2 0.0
23/04:30am 24.9 30.0 24.7 99 0.1 N 6 7 3 4 1009.2 1008.9 0.0
23/04:00am 24.7 30.2 24.7 100 0.0 NNW 4 7 2 4 1009.0 1008.7 0.0
23/03:30am 24.3 29.8 24.1 99 0.1 NE 2 6 1 3 1008.8 1008.5 0.0
23/03:00am 24.6 29.9 24.4 99 0.1 E 4 7 2 4 1008.8 1008.5 0.0
23/02:30am 24.7 30.0 24.4 98 0.2 NNE 4 7 2 4 1008.6 1008.3 0.0
23/02:00am 24.8 30.6 24.5 98 0.2 NNE 2 4 1 2 1008.6 1008.3 0.0
23/01:30am 25.1 31.2 24.4 96 0.5 CALM 0 0 0 0 1008.6 1008.3 0.0
23/01:00am 25.7 31.3 24.8 95 0.6 WNW 4 7 2 4 1008.5 1008.2 0.0
23/12:30am 26.0 31.1 25.0 94 0.7 W 7 13 4 7 1008.6 1008.3 0.0
23/12:00am 25.9 31.0 24.9 94 0.7 W 7 15 4 8 1008.7 1008.4 0.0
 
Date/Time
WST
Temp
°C
App
Temp
°C
Dew
Point
°C
Rel
Hum
%
Delta-T
°C
Wind Press
QNH
hPa
Press
MSL
hPa
Rain since
9am
mm
Dir  Spd
km/h
Gust
km/h
Spd
kts
Gust
kts
22/11:30pm 26.0 31.1 25.0 94 0.7 W 7 15 4 8 1008.9 1008.6 0.0
22/11:00pm 26.1 30.7 24.7 92 1.0 W 9 17 5 9 1009.2 1008.9 0.0
22/10:30pm 26.3 30.5 24.7 91 1.1 W 11 20 6 11 1009.5 1009.2 0.0
22/10:00pm 26.3 30.4 24.5 90 1.2 W 11 20 6 11 1009.6 1009.3 0.0
22/09:30pm 26.5 30.1 24.3 88 1.5 W 13 22 7 12 1009.9 1009.6 0.0
22/09:00pm 26.5 30.4 24.2 87 1.6 W 11 22 6 12 1009.7 1009.4 0.0
22/08:30pm 26.6 30.4 24.1 86 1.7 W 11 22 6 12 1009.7 1009.4 0.0
22/08:00pm 26.7 30.8 24.0 85 1.9 W 9 19 5 10 1009.7 1009.4 0.0
22/07:30pm 26.8 30.5 23.9 84 2.0 W 11 22 6 12 1009.4 1009.1 0.0
22/07:00pm 27.0 30.3 23.9 83 2.1 WNW 13 20 7 11 1009.2 1008.9 0.0
22/06:30pm 27.2 31.4 24.1 83 2.1 NW 9 20 5 11 1009.2 1008.9 0.0
22/06:00pm 27.2 31.0 24.1 83 2.1 W 11 24 6 13 1008.5 1008.2 0.0
22/05:30pm 27.5 30.7 23.7 80 2.6 W 13 22 7 12 1008.1 1007.8 0.0
22/05:00pm 28.0 30.4 23.6 77 3.0 W 17 30 9 16 1007.9 1007.6 0.0
22/04:30pm 28.7 31.0 23.4 73 3.6 W 17 32 9 17 1007.6 1007.3 0.0
22/04:00pm 29.3 31.9 23.3 70 4.1 W 15 26 8 14 1007.5 1007.2 0.0
22/03:30pm 29.8 31.7 23.5 69 4.3 W 19 30 10 16 1007.7 1007.4 0.0
22/03:00pm 30.3 31.8 22.7 64 5.2 W 19 35 10 19 1007.8 1007.5 0.0
22/02:30pm 30.1 30.8 21.5 60 5.8 W 20 30 11 16 1008.0 1007.7 0.0
22/02:00pm 30.8 31.7 21.9 59 6.0 W 20 39 11 21 1008.2 1007.9 0.0
22/01:30pm 31.6 32.3 21.2 54 7.0 WNW 19 30 10 16 1008.7 1008.4 0.0
22/01:00pm 31.7 32.6 20.9 52 7.2 W 17 30 9 16 1009.0 1008.7 0.0
22/12:30pm 31.6 32.2 20.2 50 7.6 WSW 17 28 9 15 1009.4 1009.1 0.0
22/12:00pm 31.0 32.7 22.3 60 5.9 W 17 32 9 17 1009.9 1009.6 0.0
22/11:30am 31.4 33.8 23.0 61 5.8 W 15 28 8 15 1010.4 1010.1 0.0
22/11:00am 31.0 32.6 22.9 62 5.6 W 19 30 10 16 1010.7 1010.4 0.0
22/10:30am 31.4 33.5 22.4 59 6.1 WNW 15 26 8 14 1011.3 1011.0 0.0
22/10:00am 31.4 33.6 21.8 56 6.5 W 13 22 7 12 1011.5 1011.2 0.0
22/09:30am 31.7 34.2 21.8 55 6.7 W 11 19 6 10 1011.9 1011.6 0.0
22/09:00am 32.2 33.7 18.0 42 9.2 SSW 7 17 4 9 1012.2 1011.9 -
22/08:30am 30.1 31.3 18.2 49 7.6 WSW 9 20 5 11 1012.3 1012.0 -
22/08:00am 29.4 32.1 20.3 58 6.0 SW 6 13 3 7 1012.3 1012.0 -
22/07:30am 28.1 32.5 23.5 76 3.2 WSW 6 9 3 5 1012.3 1012.0 -
22/07:00am 27.8 32.7 23.6 78 2.9 WSW 4 7 2 4 1012.0 1011.7 -
22/06:30am 27.4 31.9 23.6 80 2.6 WSW 6 11 3 6 1011.6 1011.3 -
22/06:00am 25.5 30.4 23.6 89 1.3 W 4 6 2 3 1011.3 1011.0 -
22/05:30am 24.7 29.5 23.5 93 0.8 W 4 7 2 4 1010.9 1010.6 -
22/05:00am 24.6 29.1 23.0 91 1.1 WSW 4 6 2 3 1010.5 1010.2 -
22/04:30am 25.0 29.6 23.2 90 1.2 WNW 4 7 2 4 1010.1 1009.8 -
22/04:00am 25.3 30.0 23.4 89 1.3 W 4 7 2 4 1009.8 1009.5 -
22/03:30am 25.5 29.7 23.2 87 1.6 W 6 9 3 5 1009.4 1009.1 -
22/03:00am 25.6 29.9 23.3 87 1.6 W 6 11 3 6 1009.2 1008.9 0.0
22/02:30am 26.0 30.0 23.1 84 2.0 W 7 15 4 8 1009.2 1008.9 -
22/02:00am 26.0 29.5 22.9 83 2.1 WSW 9 19 5 10 1009.0 1008.7 -
22/01:30am 25.9 29.4 22.8 83 2.1 W 9 15 5 8 1009.1 1008.8 -
22/01:00am 25.8 29.7 22.9 84 2.0 W 7 15 4 8 1009.1 1008.8 -
22/12:30am 25.8 29.7 22.9 84 2.0 W 7 15 4 8 1009.2 1008.9 -
22/12:00am 25.9 29.5 23.0 84 2.0 WSW 9 17 5 9 1009.1 1008.8 -
 
Date/Time
WST
Temp
°C
App
Temp
°C
Dew
Point
°C
Rel
Hum
%
Delta-T
°C
Wind Press
QNH
hPa
Press
MSL
hPa
Rain since
9am
mm
Dir  Spd
km/h
Gust
km/h
Spd
kts
Gust
kts
21/11:30pm 25.9 29.5 23.0 84 2.0 WSW 9 20 5 11 1009.5 1009.2 -
21/11:00pm 26.1 29.7 23.0 83 2.1 WSW 9 20 5 11 1009.6 1009.3 -
21/10:30pm 26.3 29.6 23.2 83 2.1 WSW 11 20 6 11 1010.1 1009.8 -
21/10:00pm 26.3 29.4 22.8 81 2.4 WSW 11 28 6 15 1010.4 1010.1 -
21/09:30pm 26.5 29.2 22.8 80 2.5 WSW 13 24 7 13 1010.4 1010.1 -
21/09:00pm 26.6 28.7 22.4 78 2.8 WSW 15 26 8 14 1010.3 1010.0 0.0
21/08:30pm 26.7 28.7 22.3 77 3.0 WSW 15 30 8 16 1010.0 1009.7 -
21/08:00pm 26.8 28.8 22.2 76 3.1 WSW 15 26 8 14 1010.1 1009.8 -
21/07:30pm 26.9 28.8 22.1 75 3.2 W 15 30 8 16 1009.8 1009.5 -
21/07:00pm 27.0 29.3 22.0 74 3.4 W 13 26 7 14 1009.6 1009.3 -
21/06:30pm 27.2 29.2 21.5 71 3.8 WSW 13 28 7 15 1009.1 1008.8 -
21/06:00pm 27.4 29.0 21.4 70 4.0 WSW 15 28 8 15 1008.9 1008.6 -
21/05:30pm 27.8 29.8 21.6 69 4.1 WSW 13 28 7 15 1008.7 1008.4 -
21/05:00pm 28.3 30.0 21.6 67 4.5 W 15 28 8 15 1008.5 1008.2 -
21/04:30pm 29.2 31.9 22.9 69 4.3 WSW 13 33 7 18 1008.4 1008.1 -
21/04:00pm 29.6 31.8 23.3 69 4.3 W 17 30 9 16 1008.3 1008.0 -
21/03:30pm 29.9 32.3 23.6 69 4.4 W 17 32 9 17 1008.4 1008.1 -
21/03:00pm 30.5 33.2 23.4 66 4.9 W 15 28 8 15 1008.6 1008.3 -
21/02:30pm 30.1 32.3 23.3 67 4.7 W 17 28 9 15 1008.8 1008.5 -
21/02:00pm 30.8 33.4 24.0 67 4.7 W 17 28 9 15 1009.2 1008.9 -
21/01:30pm 31.2 33.7 23.8 64 5.1 W 17 24 9 13 1009.6 1009.3 -
21/01:00pm 30.6 32.4 23.3 65 5.0 WNW 19 30 10 16 1009.8 1009.5 -
21/12:30pm 31.7 33.6 22.7 59 6.2 W 17 28 9 15 1010.1 1009.8 -
21/12:00pm 32.3 34.5 21.8 54 7.1 W 13 28 7 15 1010.5 1010.2 -
21/11:30am 31.6 33.3 21.7 55 6.7 W 15 26 8 14 1010.9 1010.6 -
21/11:00am 31.9 34.1 21.1 52 7.3 WSW 11 20 6 11 1011.5 1011.2 -
21/06:30am 26.3 31.2 23.0 82 2.2 SSE 2 6 1 3 1013.5 1013.2 0.0
21/06:00am 25.6 30.8 22.9 85 1.8 CALM 0 4 0 2 1013.1 1012.8 0.0
21/05:30am 25.1 30.5 23.2 89 1.3 CALM 0 0 0 0 1012.7 1012.4 0.0
21/05:00am 25.6 31.0 23.3 87 1.6 CALM 0 0 0 0 1012.3 1012.0 0.0
21/04:30am 25.8 30.6 23.5 87 1.6 SW 4 9 2 5 1011.6 1011.3 0.0
21/04:00am 25.8 30.5 24.0 90 1.2 WSW 6 15 3 8 1011.0 1010.7 0.0
21/03:30am 26.0 30.4 24.4 91 1.1 SW 9 19 5 10 1010.6 1010.3 0.0
21/03:00am 26.0 30.3 24.2 90 1.2 WSW 9 22 5 12 1010.5 1010.2 0.0
21/02:30am 26.1 30.2 24.0 88 1.4 WSW 9 17 5 9 1010.3 1010.0 0.0
21/02:00am 26.1 30.2 24.0 88 1.4 WSW 9 20 5 11 1010.4 1010.1 0.0
21/01:30am 26.1 29.7 23.8 87 1.6 WSW 11 24 6 13 1010.4 1010.1 0.0
21/01:00am 26.1 29.7 23.8 87 1.6 WSW 11 26 6 14 1010.5 1010.2 0.0
21/12:30am 26.1 29.7 23.8 87 1.6 WSW 11 22 6 12 1010.7 1010.4 0.0
21/12:00am 26.3 29.9 23.8 86 1.7 WSW 11 22 6 12 1011.0 1010.7 0.0
 
Date/Time
WST
Temp
°C
App
Temp
°C
Dew
Point
°C
Rel
Hum
%
Delta-T
°C
Wind Press
QNH
hPa
Press
MSL
hPa
Rain since
9am
mm
Dir  Spd
km/h
Gust
km/h
Spd
kts
Gust
kts
20/11:30pm 26.3 30.1 24.0 87 1.6 WSW 11 24 6 13 1011.4 1011.1 0.0
20/11:00pm 26.5 30.0 23.6 84 2.0 W 11 22 6 12 1011.9 1011.6 0.0
20/10:30pm 26.7 30.1 23.4 82 2.3 W 11 22 6 12 1012.3 1012.0 0.0
20/10:00pm 26.9 30.3 23.4 81 2.4 W 11 22 6 12 1012.5 1012.2 0.0
20/09:30pm 26.9 29.8 23.2 80 2.5 W 13 22 7 12 1012.8 1012.5 0.0
20/09:00pm 26.8 30.8 23.7 83 2.1 W 9 19 5 10 1012.8 1012.5 0.0
20/08:30pm 26.8 30.5 23.3 81 2.4 W 9 19 5 10 1012.9 1012.6 0.0
20/08:00pm 26.8 30.2 23.3 81 2.4 W 11 19 6 10 1012.8 1012.5 0.0
20/07:30pm 26.8 30.3 23.5 82 2.3 W 11 22 6 12 1012.7 1012.4 0.0
20/07:00pm 26.8 30.5 23.9 84 2.0 W 11 22 6 12 1012.2 1011.9 0.0
20/06:30pm 26.8 30.1 23.9 84 2.0 WSW 13 24 7 13 1011.7 1011.4 0.0
20/06:00pm 26.9 30.2 23.8 83 2.1 WSW 13 24 7 13 1011.3 1011.0 0.0

Other Formats:

Comma delimited format used in spreadsheet applications
http://www.bom.gov.au/fwo/IDW60801/IDW60801.99206.axf

JavaScript Object Notation format (JSON) in row-major order
http://www.bom.gov.au/fwo/IDW60801/IDW60801.99206.json